sensor_id;sensor_type;location;lat;lon;timestamp;P1;durP1;ratioP1;P2;durP2;ratioP2
9218;SDS011;4644;48.858;9.184;2023-02-10T00:01:01;34.40;;;18.50;;
9218;SDS011;4644;48.858;9.184;2023-02-10T00:03:29;38.47;;;20.73;;
9218;SDS011;4644;48.858;9.184;2023-02-10T00:05:55;31.50;;;18.47;;
9218;SDS011;4644;48.858;9.184;2023-02-10T00:08:24;38.43;;;18.07;;
9218;SDS011;4644;48.858;9.184;2023-02-10T00:10:51;32.50;;;17.20;;
9218;SDS011;4644;48.858;9.184;2023-02-10T00:13:19;31.80;;;18.73;;
9218;SDS011;4644;48.858;9.184;2023-02-10T00:15:45;34.00;;;19.60;;
9218;SDS011;4644;48.858;9.184;2023-02-10T00:18:12;33.00;;;19.07;;
9218;SDS011;4644;48.858;9.184;2023-02-10T00:20:39;33.73;;;19.33;;
9218;SDS011;4644;48.858;9.184;2023-02-10T00:23:06;35.67;;;19.07;;
9218;SDS011;4644;48.858;9.184;2023-02-10T00:25:35;32.67;;;19.53;;
9218;SDS011;4644;48.858;9.184;2023-02-10T00:28:03;36.47;;;20.93;;
9218;SDS011;4644;48.858;9.184;2023-02-10T00:30:30;36.33;;;20.57;;
9218;SDS011;4644;48.858;9.184;2023-02-10T00:32:57;33.60;;;20.47;;
9218;SDS011;4644;48.858;9.184;2023-02-10T00:35:24;33.30;;;19.87;;
9218;SDS011;4644;48.858;9.184;2023-02-10T00:37:51;35.40;;;18.83;;
9218;SDS011;4644;48.858;9.184;2023-02-10T00:40:18;35.80;;;20.33;;
9218;SDS011;4644;48.858;9.184;2023-02-10T00:42:46;34.13;;;19.07;;
9218;SDS011;4644;48.858;9.184;2023-02-10T00:45:13;30.67;;;17.97;;
9218;SDS011;4644;48.858;9.184;2023-02-10T00:47:40;36.73;;;19.60;;
9218;SDS011;4644;48.858;9.184;2023-02-10T00:50:07;32.07;;;19.27;;
9218;SDS011;4644;48.858;9.184;2023-02-10T00:52:35;35.83;;;19.70;;
9218;SDS011;4644;48.858;9.184;2023-02-10T00:55:03;34.93;;;20.07;;
9218;SDS011;4644;48.858;9.184;2023-02-10T00:57:30;37.57;;;20.33;;
9218;SDS011;4644;48.858;9.184;2023-02-10T00:59:59;38.47;;;20.73;;
9218;SDS011;4644;48.858;9.184;2023-02-10T01:02:26;38.27;;;20.50;;
9218;SDS011;4644;48.858;9.184;2023-02-10T01:04:53;31.83;;;19.27;;
9218;SDS011;4644;48.858;9.184;2023-02-10T01:07:20;38.77;;;20.63;;
9218;SDS011;4644;48.858;9.184;2023-02-10T01:09:47;33.20;;;19.03;;
9218;SDS011;4644;48.858;9.184;2023-02-10T01:12:14;33.47;;;19.53;;
9218;SDS011;4644;48.858;9.184;2023-02-10T01:14:41;34.50;;;19.20;;
9218;SDS011;4644;48.858;9.184;2023-02-10T01:17:09;35.10;;;19.57;;
9218;SDS011;4644;48.858;9.184;2023-02-10T01:19:36;36.10;;;19.73;;
9218;SDS011;4644;48.858;9.184;2023-02-10T01:22:03;35.03;;;20.23;;
9218;SDS011;4644;48.858;9.184;2023-02-10T01:24:30;35.67;;;19.73;;
9218;SDS011;4644;48.858;9.184;2023-02-10T01:26:57;40.00;;;21.77;;
9218;SDS011;4644;48.858;9.184;2023-02-10T01:29:24;42.23;;;22.77;;
9218;SDS011;4644;48.858;9.184;2023-02-10T01:31:52;36.20;;;21.37;;
9218;SDS011;4644;48.858;9.184;2023-02-10T01:34:20;45.63;;;23.93;;
9218;SDS011;4644;48.858;9.184;2023-02-10T01:36:47;40.73;;;22.67;;
9218;SDS011;4644;48.858;9.184;2023-02-10T01:39:14;44.40;;;22.97;;
9218;SDS011;4644;48.858;9.184;2023-02-10T01:41:42;42.40;;;22.80;;
9218;SDS011;4644;48.858;9.184;2023-02-10T01:47:09;38.03;;;21.87;;
9218;SDS011;4644;48.858;9.184;2023-02-10T01:49:38;38.13;;;21.80;;
9218;SDS011;4644;48.858;9.184;2023-02-10T01:52:10;39.33;;;22.30;;
9218;SDS011;4644;48.858;9.184;2023-02-10T01:54:41;38.53;;;21.77;;
9218;SDS011;4644;48.858;9.184;2023-02-10T01:57:11;39.17;;;23.33;;
9218;SDS011;4644;48.858;9.184;2023-02-10T01:59:39;39.60;;;22.30;;
9218;SDS011;4644;48.858;9.184;2023-02-10T02:02:07;36.27;;;21.57;;
9218;SDS011;4644;48.858;9.184;2023-02-10T02:04:37;39.20;;;22.43;;
9218;SDS011;4644;48.858;9.184;2023-02-10T02:07:08;41.93;;;22.03;;
9218;SDS011;4644;48.858;9.184;2023-02-10T02:09:35;40.17;;;23.30;;
9218;SDS011;4644;48.858;9.184;2023-02-10T02:12:04;39.97;;;22.77;;
9218;SDS011;4644;48.858;9.184;2023-02-10T02:14:38;43.57;;;23.17;;
9218;SDS011;4644;48.858;9.184;2023-02-10T02:17:12;37.53;;;22.17;;
9218;SDS011;4644;48.858;9.184;2023-02-10T02:19:53;40.83;;;22.27;;
9218;SDS011;4644;48.858;9.184;2023-02-10T02:23:06;35.00;;;20.83;;
9218;SDS011;4644;48.858;9.184;2023-02-10T02:25:43;34.90;;;21.73;;
9218;SDS011;4644;48.858;9.184;2023-02-10T02:28:35;44.03;;;22.53;;
9218;SDS011;4644;48.858;9.184;2023-02-10T02:34:13;35.60;;;20.97;;
9218;SDS011;4644;48.858;9.184;2023-02-10T02:36:44;38.90;;;21.63;;
9218;SDS011;4644;48.858;9.184;2023-02-10T02:39:17;35.63;;;21.47;;
9218;SDS011;4644;48.858;9.184;2023-02-10T02:41:44;37.23;;;21.90;;
9218;SDS011;4644;48.858;9.184;2023-02-10T02:44:11;37.77;;;22.17;;
9218;SDS011;4644;48.858;9.184;2023-02-10T02:46:41;36.53;;;20.77;;
9218;SDS011;4644;48.858;9.184;2023-02-10T02:49:21;35.60;;;20.83;;
9218;SDS011;4644;48.858;9.184;2023-02-10T02:52:00;39.37;;;22.10;;
9218;SDS011;4644;48.858;9.184;2023-02-10T02:54:31;37.17;;;20.90;;
9218;SDS011;4644;48.858;9.184;2023-02-10T02:57:06;37.57;;;20.73;;
9218;SDS011;4644;48.858;9.184;2023-02-10T02:59:40;37.93;;;21.27;;
9218;SDS011;4644;48.858;9.184;2023-02-10T03:02:12;38.30;;;22.70;;
9218;SDS011;4644;48.858;9.184;2023-02-10T03:04:41;44.33;;;22.03;;
9218;SDS011;4644;48.858;9.184;2023-02-10T03:07:09;39.90;;;22.23;;
9218;SDS011;4644;48.858;9.184;2023-02-10T03:09:36;35.80;;;21.80;;
9218;SDS011;4644;48.858;9.184;2023-02-10T03:12:03;35.73;;;21.07;;
9218;SDS011;4644;48.858;9.184;2023-02-10T03:14:31;34.20;;;21.13;;
9218;SDS011;4644;48.858;9.184;2023-02-10T03:16:57;38.03;;;22.07;;
9218;SDS011;4644;48.858;9.184;2023-02-10T03:19:26;36.20;;;19.63;;
9218;SDS011;4644;48.858;9.184;2023-02-10T03:21:53;36.10;;;20.10;;
9218;SDS011;4644;48.858;9.184;2023-02-10T03:24:20;35.90;;;20.67;;
9218;SDS011;4644;48.858;9.184;2023-02-10T03:26:47;33.37;;;19.33;;
9218;SDS011;4644;48.858;9.184;2023-02-10T03:29:14;32.23;;;20.00;;
9218;SDS011;4644;48.858;9.184;2023-02-10T03:31:42;37.33;;;20.60;;
9218;SDS011;4644;48.858;9.184;2023-02-10T03:34:09;34.77;;;19.37;;
9218;SDS011;4644;48.858;9.184;2023-02-10T03:36:37;35.50;;;20.37;;
9218;SDS011;4644;48.858;9.184;2023-02-10T03:39:04;35.73;;;19.90;;
9218;SDS011;4644;48.858;9.184;2023-02-10T03:41:31;35.13;;;20.07;;
9218;SDS011;4644;48.858;9.184;2023-02-10T03:43:58;33.90;;;20.50;;
9218;SDS011;4644;48.858;9.184;2023-02-10T03:46:25;39.13;;;22.00;;
9218;SDS011;4644;48.858;9.184;2023-02-10T03:48:52;37.70;;;21.03;;
9218;SDS011;4644;48.858;9.184;2023-02-10T03:51:19;40.23;;;21.50;;
9218;SDS011;4644;48.858;9.184;2023-02-10T03:53:47;37.40;;;20.93;;
9218;SDS011;4644;48.858;9.184;2023-02-10T03:56:14;36.60;;;21.53;;
9218;SDS011;4644;48.858;9.184;2023-02-10T03:58:41;38.33;;;21.30;;
9218;SDS011;4644;48.858;9.184;2023-02-10T04:01:09;38.93;;;21.13;;
9218;SDS011;4644;48.858;9.184;2023-02-10T04:03:38;37.07;;;20.77;;
9218;SDS011;4644;48.858;9.184;2023-02-10T04:06:05;33.37;;;20.30;;
9218;SDS011;4644;48.858;9.184;2023-02-10T04:08:32;35.03;;;21.27;;
9218;SDS011;4644;48.858;9.184;2023-02-10T04:11:00;35.93;;;21.10;;
9218;SDS011;4644;48.858;9.184;2023-02-10T04:13:27;38.90;;;21.57;;
9218;SDS011;4644;48.858;9.184;2023-02-10T04:16:01;38.13;;;23.27;;
9218;SDS011;4644;48.858;9.184;2023-02-10T04:18:28;39.83;;;21.23;;
9218;SDS011;4644;48.858;9.184;2023-02-10T04:20:55;38.03;;;22.50;;
9218;SDS011;4644;48.858;9.184;2023-02-10T04:23:22;37.30;;;20.67;;
9218;SDS011;4644;48.858;9.184;2023-02-10T04:25:49;37.57;;;21.13;;
9218;SDS011;4644;48.858;9.184;2023-02-10T04:28:18;39.67;;;21.63;;
9218;SDS011;4644;48.858;9.184;2023-02-10T04:30:45;34.13;;;20.47;;
9218;SDS011;4644;48.858;9.184;2023-02-10T04:33:16;40.73;;;21.57;;
9218;SDS011;4644;48.858;9.184;2023-02-10T04:35:43;36.23;;;21.10;;
9218;SDS011;4644;48.858;9.184;2023-02-10T04:38:10;38.03;;;21.30;;
9218;SDS011;4644;48.858;9.184;2023-02-10T04:40:37;36.23;;;20.23;;
9218;SDS011;4644;48.858;9.184;2023-02-10T04:43:04;35.03;;;20.57;;
9218;SDS011;4644;48.858;9.184;2023-02-10T04:45:33;37.37;;;21.63;;
9218;SDS011;4644;48.858;9.184;2023-02-10T04:48:00;42.00;;;21.37;;
9218;SDS011;4644;48.858;9.184;2023-02-10T04:50:27;38.37;;;21.87;;
9218;SDS011;4644;48.858;9.184;2023-02-10T04:52:53;40.40;;;21.97;;
9218;SDS011;4644;48.858;9.184;2023-02-10T04:55:20;37.67;;;22.37;;
9218;SDS011;4644;48.858;9.184;2023-02-10T04:57:47;36.80;;;20.03;;
9218;SDS011;4644;48.858;9.184;2023-02-10T05:00:14;34.47;;;20.57;;
9218;SDS011;4644;48.858;9.184;2023-02-10T05:02:43;40.93;;;22.87;;
9218;SDS011;4644;48.858;9.184;2023-02-10T05:05:10;32.13;;;19.33;;
9218;SDS011;4644;48.858;9.184;2023-02-10T05:07:38;36.00;;;20.73;;
9218;SDS011;4644;48.858;9.184;2023-02-10T05:10:06;41.03;;;21.47;;
9218;SDS011;4644;48.858;9.184;2023-02-10T05:12:33;38.30;;;21.33;;
9218;SDS011;4644;48.858;9.184;2023-02-10T05:15:00;36.10;;;21.27;;
9218;SDS011;4644;48.858;9.184;2023-02-10T05:17:27;36.00;;;21.47;;
9218;SDS011;4644;48.858;9.184;2023-02-10T05:19:55;37.87;;;21.47;;
9218;SDS011;4644;48.858;9.184;2023-02-10T05:22:22;38.60;;;21.00;;
9218;SDS011;4644;48.858;9.184;2023-02-10T05:24:54;37.60;;;22.23;;
9218;SDS011;4644;48.858;9.184;2023-02-10T05:27:21;41.27;;;21.47;;
9218;SDS011;4644;48.858;9.184;2023-02-10T05:29:48;35.40;;;20.80;;
9218;SDS011;4644;48.858;9.184;2023-02-10T05:32:15;43.00;;;22.67;;
9218;SDS011;4644;48.858;9.184;2023-02-10T05:34:42;38.60;;;21.80;;
9218;SDS011;4644;48.858;9.184;2023-02-10T05:37:11;41.73;;;22.13;;
9218;SDS011;4644;48.858;9.184;2023-02-10T05:39:37;40.23;;;22.90;;
9218;SDS011;4644;48.858;9.184;2023-02-10T05:42:05;38.27;;;22.57;;
9218;SDS011;4644;48.858;9.184;2023-02-10T05:44:32;40.40;;;21.07;;
9218;SDS011;4644;48.858;9.184;2023-02-10T05:46:59;35.50;;;21.30;;
9218;SDS011;4644;48.858;9.184;2023-02-10T05:49:25;38.47;;;22.13;;
9218;SDS011;4644;48.858;9.184;2023-02-10T05:51:52;37.13;;;21.83;;
9218;SDS011;4644;48.858;9.184;2023-02-10T05:54:21;43.10;;;22.07;;
9218;SDS011;4644;48.858;9.184;2023-02-10T05:56:48;38.60;;;22.97;;
9218;SDS011;4644;48.858;9.184;2023-02-10T05:59:15;37.77;;;23.47;;
9218;SDS011;4644;48.858;9.184;2023-02-10T06:01:44;38.57;;;22.67;;
9218;SDS011;4644;48.858;9.184;2023-02-10T06:04:11;38.50;;;21.47;;
9218;SDS011;4644;48.858;9.184;2023-02-10T06:06:38;40.97;;;21.90;;
9218;SDS011;4644;48.858;9.184;2023-02-10T06:09:05;37.60;;;22.27;;
9218;SDS011;4644;48.858;9.184;2023-02-10T06:11:34;36.73;;;21.43;;
9218;SDS011;4644;48.858;9.184;2023-02-10T06:14:01;34.50;;;21.60;;
9218;SDS011;4644;48.858;9.184;2023-02-10T06:16:28;40.93;;;21.40;;
9218;SDS011;4644;48.858;9.184;2023-02-10T06:18:55;38.97;;;22.30;;
9218;SDS011;4644;48.858;9.184;2023-02-10T06:21:22;43.90;;;22.50;;
9218;SDS011;4644;48.858;9.184;2023-02-10T06:23:49;45.10;;;22.20;;
9218;SDS011;4644;48.858;9.184;2023-02-10T06:26:16;47.50;;;22.20;;
9218;SDS011;4644;48.858;9.184;2023-02-10T06:28:44;40.87;;;22.27;;
9218;SDS011;4644;48.858;9.184;2023-02-10T06:31:11;40.33;;;22.43;;
9218;SDS011;4644;48.858;9.184;2023-02-10T06:33:38;37.17;;;21.47;;
9218;SDS011;4644;48.858;9.184;2023-02-10T06:36:06;40.67;;;21.73;;
9218;SDS011;4644;48.858;9.184;2023-02-10T06:38:35;42.63;;;22.10;;
9218;SDS011;4644;48.858;9.184;2023-02-10T06:41:02;39.77;;;21.10;;
9218;SDS011;4644;48.858;9.184;2023-02-10T06:43:30;37.13;;;21.30;;
9218;SDS011;4644;48.858;9.184;2023-02-10T06:45:58;36.03;;;20.73;;
9218;SDS011;4644;48.858;9.184;2023-02-10T06:48:25;38.70;;;21.20;;
9218;SDS011;4644;48.858;9.184;2023-02-10T06:50:52;39.80;;;22.20;;
9218;SDS011;4644;48.858;9.184;2023-02-10T06:53:19;37.47;;;22.03;;
9218;SDS011;4644;48.858;9.184;2023-02-10T06:55:46;38.27;;;20.97;;
9218;SDS011;4644;48.858;9.184;2023-02-10T06:58:13;39.60;;;22.90;;
9218;SDS011;4644;48.858;9.184;2023-02-10T07:00:40;38.03;;;22.73;;
9218;SDS011;4644;48.858;9.184;2023-02-10T07:03:09;40.70;;;22.57;;
9218;SDS011;4644;48.858;9.184;2023-02-10T07:05:39;44.33;;;21.53;;
9218;SDS011;4644;48.858;9.184;2023-02-10T07:08:06;39.17;;;22.37;;
9218;SDS011;4644;48.858;9.184;2023-02-10T07:10:32;43.57;;;23.67;;
9218;SDS011;4644;48.858;9.184;2023-02-10T07:12:59;39.90;;;23.13;;
9218;SDS011;4644;48.858;9.184;2023-02-10T07:15:27;39.43;;;22.53;;
9218;SDS011;4644;48.858;9.184;2023-02-10T07:17:53;40.63;;;23.77;;
9218;SDS011;4644;48.858;9.184;2023-02-10T07:20:22;44.70;;;23.77;;
9218;SDS011;4644;48.858;9.184;2023-02-10T07:22:49;48.57;;;24.67;;
9218;SDS011;4644;48.858;9.184;2023-02-10T07:25:16;40.50;;;23.23;;
9218;SDS011;4644;48.858;9.184;2023-02-10T07:27:43;39.53;;;22.13;;
9218;SDS011;4644;48.858;9.184;2023-02-10T07:30:10;40.20;;;22.87;;
9218;SDS011;4644;48.858;9.184;2023-02-10T07:32:38;39.67;;;22.07;;
9218;SDS011;4644;48.858;9.184;2023-02-10T07:35:09;40.30;;;22.73;;
9218;SDS011;4644;48.858;9.184;2023-02-10T07:37:38;40.70;;;22.87;;
9218;SDS011;4644;48.858;9.184;2023-02-10T07:40:06;41.40;;;21.77;;
9218;SDS011;4644;48.858;9.184;2023-02-10T07:42:33;40.13;;;21.73;;
9218;SDS011;4644;48.858;9.184;2023-02-10T07:45:00;43.17;;;24.43;;
9218;SDS011;4644;48.858;9.184;2023-02-10T07:47:27;37.70;;;23.20;;
9218;SDS011;4644;48.858;9.184;2023-02-10T07:49:54;41.10;;;21.03;;
9218;SDS011;4644;48.858;9.184;2023-02-10T07:52:21;37.30;;;21.27;;
9218;SDS011;4644;48.858;9.184;2023-02-10T07:54:49;39.20;;;21.57;;
9218;SDS011;4644;48.858;9.184;2023-02-10T07:57:16;35.63;;;20.83;;
9218;SDS011;4644;48.858;9.184;2023-02-10T07:59:43;39.37;;;21.50;;
9218;SDS011;4644;48.858;9.184;2023-02-10T08:02:10;38.90;;;21.37;;
9218;SDS011;4644;48.858;9.184;2023-02-10T08:04:37;37.73;;;20.97;;
9218;SDS011;4644;48.858;9.184;2023-02-10T08:07:04;35.03;;;19.93;;
9218;SDS011;4644;48.858;9.184;2023-02-10T08:09:31;41.10;;;23.73;;
9218;SDS011;4644;48.858;9.184;2023-02-10T08:12:00;37.23;;;21.57;;
9218;SDS011;4644;48.858;9.184;2023-02-10T08:14:26;33.63;;;20.60;;
9218;SDS011;4644;48.858;9.184;2023-02-10T08:16:54;37.37;;;21.27;;
9218;SDS011;4644;48.858;9.184;2023-02-10T08:19:21;38.53;;;21.63;;
9218;SDS011;4644;48.858;9.184;2023-02-10T08:21:48;36.07;;;21.23;;
9218;SDS011;4644;48.858;9.184;2023-02-10T08:24:14;37.20;;;21.07;;
9218;SDS011;4644;48.858;9.184;2023-02-10T08:26:41;34.73;;;21.10;;
9218;SDS011;4644;48.858;9.184;2023-02-10T08:29:10;41.33;;;23.27;;
9218;SDS011;4644;48.858;9.184;2023-02-10T08:31:37;36.77;;;20.93;;
9218;SDS011;4644;48.858;9.184;2023-02-10T08:34:04;34.60;;;21.00;;
9218;SDS011;4644;48.858;9.184;2023-02-10T08:36:31;37.07;;;21.03;;
9218;SDS011;4644;48.858;9.184;2023-02-10T08:38:58;37.33;;;21.73;;
9218;SDS011;4644;48.858;9.184;2023-02-10T08:41:25;36.63;;;21.27;;
9218;SDS011;4644;48.858;9.184;2023-02-10T08:43:55;37.57;;;20.63;;
9218;SDS011;4644;48.858;9.184;2023-02-10T08:46:24;36.80;;;20.93;;
9218;SDS011;4644;48.858;9.184;2023-02-10T08:48:51;34.40;;;19.23;;
9218;SDS011;4644;48.858;9.184;2023-02-10T08:51:18;34.27;;;19.90;;
9218;SDS011;4644;48.858;9.184;2023-02-10T08:53:48;33.03;;;20.37;;
9218;SDS011;4644;48.858;9.184;2023-02-10T08:56:16;32.73;;;19.80;;
9218;SDS011;4644;48.858;9.184;2023-02-10T08:58:43;34.77;;;20.47;;
9218;SDS011;4644;48.858;9.184;2023-02-10T09:01:12;31.90;;;18.97;;
9218;SDS011;4644;48.858;9.184;2023-02-10T09:03:42;34.73;;;19.70;;
9218;SDS011;4644;48.858;9.184;2023-02-10T09:06:13;31.87;;;18.10;;
9218;SDS011;4644;48.858;9.184;2023-02-10T09:08:41;32.63;;;18.83;;
9218;SDS011;4644;48.858;9.184;2023-02-10T09:11:09;34.20;;;19.03;;
9218;SDS011;4644;48.858;9.184;2023-02-10T09:13:36;32.67;;;19.30;;
9218;SDS011;4644;48.858;9.184;2023-02-10T09:16:03;29.47;;;19.23;;
9218;SDS011;4644;48.858;9.184;2023-02-10T09:18:30;32.33;;;19.33;;
9218;SDS011;4644;48.858;9.184;2023-02-10T09:20:59;32.90;;;19.60;;
9218;SDS011;4644;48.858;9.184;2023-02-10T09:23:26;33.77;;;19.40;;
9218;SDS011;4644;48.858;9.184;2023-02-10T09:25:54;30.23;;;18.47;;
9218;SDS011;4644;48.858;9.184;2023-02-10T09:28:21;35.13;;;20.37;;
9218;SDS011;4644;48.858;9.184;2023-02-10T09:30:48;32.63;;;19.00;;
9218;SDS011;4644;48.858;9.184;2023-02-10T09:33:15;35.93;;;19.43;;
9218;SDS011;4644;48.858;9.184;2023-02-10T09:35:43;29.03;;;18.83;;
9218;SDS011;4644;48.858;9.184;2023-02-10T09:38:11;32.33;;;17.03;;
9218;SDS011;4644;48.858;9.184;2023-02-10T09:40:43;26.97;;;17.47;;
9218;SDS011;4644;48.858;9.184;2023-02-10T09:43:18;27.93;;;17.53;;
9218;SDS011;4644;48.858;9.184;2023-02-10T09:45:53;29.07;;;17.73;;
9218;SDS011;4644;48.858;9.184;2023-02-10T09:48:29;27.50;;;17.73;;
9218;SDS011;4644;48.858;9.184;2023-02-10T09:51:03;28.67;;;17.87;;
9218;SDS011;4644;48.858;9.184;2023-02-10T09:53:41;34.50;;;19.43;;
9218;SDS011;4644;48.858;9.184;2023-02-10T09:56:09;30.87;;;17.80;;
9218;SDS011;4644;48.858;9.184;2023-02-10T09:58:43;31.90;;;17.40;;
9218;SDS011;4644;48.858;9.184;2023-02-10T10:01:13;28.43;;;18.37;;
9218;SDS011;4644;48.858;9.184;2023-02-10T10:03:44;31.90;;;19.50;;
9218;SDS011;4644;48.858;9.184;2023-02-10T10:06:16;32.70;;;18.70;;
9218;SDS011;4644;48.858;9.184;2023-02-10T10:09:01;33.93;;;18.70;;
9218;SDS011;4644;48.858;9.184;2023-02-10T10:11:40;29.80;;;19.60;;
9218;SDS011;4644;48.858;9.184;2023-02-10T10:14:13;26.73;;;17.60;;
9218;SDS011;4644;48.858;9.184;2023-02-10T10:16:46;27.40;;;17.93;;
9218;SDS011;4644;48.858;9.184;2023-02-10T10:19:26;30.97;;;18.50;;
9218;SDS011;4644;48.858;9.184;2023-02-10T10:22:10;28.30;;;17.67;;
9218;SDS011;4644;48.858;9.184;2023-02-10T10:24:53;29.67;;;18.27;;
9218;SDS011;4644;48.858;9.184;2023-02-10T10:27:32;27.07;;;17.33;;
9218;SDS011;4644;48.858;9.184;2023-02-10T10:30:07;29.10;;;17.57;;
9218;SDS011;4644;48.858;9.184;2023-02-10T10:32:41;30.23;;;17.47;;
9218;SDS011;4644;48.858;9.184;2023-02-10T10:35:11;29.80;;;18.53;;
9218;SDS011;4644;48.858;9.184;2023-02-10T10:37:42;31.03;;;18.13;;
9218;SDS011;4644;48.858;9.184;2023-02-10T10:40:14;32.53;;;17.77;;
9218;SDS011;4644;48.858;9.184;2023-02-10T10:42:45;27.60;;;17.57;;
9218;SDS011;4644;48.858;9.184;2023-02-10T10:45:15;26.20;;;17.20;;
9218;SDS011;4644;48.858;9.184;2023-02-10T10:47:46;28.93;;;17.10;;
9218;SDS011;4644;48.858;9.184;2023-02-10T10:50:20;28.73;;;16.90;;
9218;SDS011;4644;48.858;9.184;2023-02-10T10:52:49;28.43;;;18.17;;
9218;SDS011;4644;48.858;9.184;2023-02-10T10:55:21;28.80;;;17.30;;
9218;SDS011;4644;48.858;9.184;2023-02-10T10:57:51;27.97;;;16.60;;
9218;SDS011;4644;48.858;9.184;2023-02-10T11:00:21;26.93;;;16.97;;
9218;SDS011;4644;48.858;9.184;2023-02-10T11:02:50;26.73;;;16.30;;
9218;SDS011;4644;48.858;9.184;2023-02-10T11:05:19;27.37;;;16.57;;
9218;SDS011;4644;48.858;9.184;2023-02-10T11:07:47;27.60;;;16.57;;
9218;SDS011;4644;48.858;9.184;2023-02-10T11:10:26;28.73;;;16.70;;
9218;SDS011;4644;48.858;9.184;2023-02-10T11:12:56;25.33;;;16.33;;
9218;SDS011;4644;48.858;9.184;2023-02-10T11:15:29;21.57;;;15.13;;
9218;SDS011;4644;48.858;9.184;2023-02-10T11:18:00;25.43;;;14.97;;
9218;SDS011;4644;48.858;9.184;2023-02-10T11:20:29;23.20;;;16.23;;
9218;SDS011;4644;48.858;9.184;2023-02-10T11:23:00;25.77;;;15.57;;
9218;SDS011;4644;48.858;9.184;2023-02-10T11:25:31;30.10;;;17.00;;
9218;SDS011;4644;48.858;9.184;2023-02-10T11:28:01;24.80;;;16.27;;
9218;SDS011;4644;48.858;9.184;2023-02-10T11:30:29;25.07;;;14.80;;
9218;SDS011;4644;48.858;9.184;2023-02-10T11:32:58;24.70;;;15.87;;
9218;SDS011;4644;48.858;9.184;2023-02-10T11:35:27;26.03;;;16.33;;
9218;SDS011;4644;48.858;9.184;2023-02-10T11:37:56;20.23;;;14.60;;
9218;SDS011;4644;48.858;9.184;2023-02-10T11:40:26;25.60;;;15.03;;
9218;SDS011;4644;48.858;9.184;2023-02-10T11:42:57;22.70;;;15.63;;
9218;SDS011;4644;48.858;9.184;2023-02-10T11:45:27;23.50;;;14.70;;
9218;SDS011;4644;48.858;9.184;2023-02-10T11:48:02;21.23;;;14.47;;
9218;SDS011;4644;48.858;9.184;2023-02-10T11:50:31;22.93;;;14.30;;
9218;SDS011;4644;48.858;9.184;2023-02-10T11:52:59;20.47;;;13.70;;
9218;SDS011;4644;48.858;9.184;2023-02-10T11:55:30;19.70;;;13.23;;
9218;SDS011;4644;48.858;9.184;2023-02-10T11:58:18;21.07;;;12.93;;
9218;SDS011;4644;48.858;9.184;2023-02-10T12:01:17;22.03;;;13.87;;
9218;SDS011;4644;48.858;9.184;2023-02-10T12:04:00;19.53;;;13.70;;
9218;SDS011;4644;48.858;9.184;2023-02-10T12:06:30;23.10;;;13.03;;
9218;SDS011;4644;48.858;9.184;2023-02-10T12:09:04;20.17;;;12.57;;
9218;SDS011;4644;48.858;9.184;2023-02-10T12:11:39;18.93;;;12.83;;
9218;SDS011;4644;48.858;9.184;2023-02-10T12:14:20;19.73;;;13.30;;
9218;SDS011;4644;48.858;9.184;2023-02-10T12:16:59;21.57;;;13.60;;
9218;SDS011;4644;48.858;9.184;2023-02-10T12:19:39;17.60;;;13.40;;
9218;SDS011;4644;48.858;9.184;2023-02-10T12:22:16;23.20;;;14.17;;
9218;SDS011;4644;48.858;9.184;2023-02-10T12:24:52;20.43;;;13.40;;
9218;SDS011;4644;48.858;9.184;2023-02-10T12:27:51;21.67;;;14.40;;
9218;SDS011;4644;48.858;9.184;2023-02-10T12:30:30;22.50;;;13.67;;
9218;SDS011;4644;48.858;9.184;2023-02-10T12:33:09;16.70;;;12.97;;
9218;SDS011;4644;48.858;9.184;2023-02-10T12:35:58;21.37;;;14.30;;
9218;SDS011;4644;48.858;9.184;2023-02-10T12:38:38;18.30;;;12.90;;
9218;SDS011;4644;48.858;9.184;2023-02-10T12:41:18;19.23;;;13.43;;
9218;SDS011;4644;48.858;9.184;2023-02-10T12:44:01;20.33;;;13.17;;
9218;SDS011;4644;48.858;9.184;2023-02-10T12:46:43;21.33;;;14.10;;
9218;SDS011;4644;48.858;9.184;2023-02-10T12:49:22;21.43;;;14.63;;
9218;SDS011;4644;48.858;9.184;2023-02-10T12:52:00;21.63;;;13.70;;
9218;SDS011;4644;48.858;9.184;2023-02-10T12:54:33;20.47;;;14.07;;
9218;SDS011;4644;48.858;9.184;2023-02-10T12:57:07;21.37;;;13.23;;
9218;SDS011;4644;48.858;9.184;2023-02-10T12:59:41;18.23;;;12.17;;
9218;SDS011;4644;48.858;9.184;2023-02-10T13:02:16;22.90;;;13.40;;
9218;SDS011;4644;48.858;9.184;2023-02-10T13:04:47;19.57;;;13.27;;
9218;SDS011;4644;48.858;9.184;2023-02-10T13:07:23;19.47;;;12.43;;
9218;SDS011;4644;48.858;9.184;2023-02-10T13:09:55;20.20;;;12.77;;
9218;SDS011;4644;48.858;9.184;2023-02-10T13:12:26;19.17;;;12.40;;
9218;SDS011;4644;48.858;9.184;2023-02-10T13:14:58;24.17;;;15.90;;
9218;SDS011;4644;48.858;9.184;2023-02-10T13:17:33;26.43;;;13.80;;
9218;SDS011;4644;48.858;9.184;2023-02-10T13:20:06;18.90;;;13.03;;
9218;SDS011;4644;48.858;9.184;2023-02-10T13:22:49;21.30;;;13.43;;
9218;SDS011;4644;48.858;9.184;2023-02-10T13:25:20;19.40;;;12.73;;
9218;SDS011;4644;48.858;9.184;2023-02-10T13:27:58;21.23;;;13.47;;
9218;SDS011;4644;48.858;9.184;2023-02-10T13:33:33;21.27;;;14.53;;
9218;SDS011;4644;48.858;9.184;2023-02-10T13:36:09;20.87;;;13.30;;
9218;SDS011;4644;48.858;9.184;2023-02-10T13:38:40;21.97;;;13.97;;
9218;SDS011;4644;48.858;9.184;2023-02-10T13:41:16;25.33;;;14.27;;
9218;SDS011;4644;48.858;9.184;2023-02-10T13:44:16;22.40;;;14.20;;
9218;SDS011;4644;48.858;9.184;2023-02-10T13:46:52;26.17;;;13.33;;
9218;SDS011;4644;48.858;9.184;2023-02-10T13:49:23;24.80;;;14.67;;
9218;SDS011;4644;48.858;9.184;2023-02-10T13:51:58;22.23;;;14.20;;
9218;SDS011;4644;48.858;9.184;2023-02-10T13:54:30;26.53;;;14.73;;
9218;SDS011;4644;48.858;9.184;2023-02-10T13:57:01;23.30;;;14.60;;
9218;SDS011;4644;48.858;9.184;2023-02-10T13:59:35;19.57;;;13.80;;
9218;SDS011;4644;48.858;9.184;2023-02-10T14:02:11;21.33;;;13.20;;
9218;SDS011;4644;48.858;9.184;2023-02-10T14:04:48;22.87;;;14.20;;
9218;SDS011;4644;48.858;9.184;2023-02-10T14:07:17;21.03;;;13.20;;
9218;SDS011;4644;48.858;9.184;2023-02-10T14:10:04;21.63;;;13.20;;
9218;SDS011;4644;48.858;9.184;2023-02-10T14:12:52;22.67;;;14.10;;
9218;SDS011;4644;48.858;9.184;2023-02-10T14:15:21;20.97;;;13.13;;
9218;SDS011;4644;48.858;9.184;2023-02-10T14:17:57;24.87;;;14.57;;
9218;SDS011;4644;48.858;9.184;2023-02-10T14:20:30;23.10;;;14.83;;
9218;SDS011;4644;48.858;9.184;2023-02-10T14:23:02;26.50;;;15.00;;
9218;SDS011;4644;48.858;9.184;2023-02-10T14:25:40;25.10;;;16.47;;
9218;SDS011;4644;48.858;9.184;2023-02-10T14:28:17;27.27;;;15.60;;
9218;SDS011;4644;48.858;9.184;2023-02-10T14:30:50;24.73;;;15.53;;
9218;SDS011;4644;48.858;9.184;2023-02-10T14:33:24;22.50;;;15.00;;
9218;SDS011;4644;48.858;9.184;2023-02-10T14:35:55;20.87;;;14.07;;
9218;SDS011;4644;48.858;9.184;2023-02-10T14:38:25;22.90;;;14.17;;
9218;SDS011;4644;48.858;9.184;2023-02-10T14:40:54;22.27;;;14.37;;
9218;SDS011;4644;48.858;9.184;2023-02-10T14:43:24;22.80;;;15.37;;
9218;SDS011;4644;48.858;9.184;2023-02-10T14:45:53;22.87;;;14.63;;
9218;SDS011;4644;48.858;9.184;2023-02-10T14:48:22;24.27;;;15.77;;
9218;SDS011;4644;48.858;9.184;2023-02-10T14:50:59;26.07;;;15.30;;
9218;SDS011;4644;48.858;9.184;2023-02-10T14:53:32;25.50;;;15.90;;
9218;SDS011;4644;48.858;9.184;2023-02-10T14:56:02;27.17;;;14.83;;
9218;SDS011;4644;48.858;9.184;2023-02-10T14:58:30;20.47;;;14.00;;
9218;SDS011;4644;48.858;9.184;2023-02-10T15:01:00;24.77;;;15.47;;
9218;SDS011;4644;48.858;9.184;2023-02-10T15:03:30;23.50;;;15.03;;
9218;SDS011;4644;48.858;9.184;2023-02-10T15:05:59;25.77;;;15.83;;
9218;SDS011;4644;48.858;9.184;2023-02-10T15:08:31;27.27;;;16.40;;
9218;SDS011;4644;48.858;9.184;2023-02-10T15:11:03;22.77;;;14.43;;
9218;SDS011;4644;48.858;9.184;2023-02-10T15:13:34;22.60;;;15.30;;
9218;SDS011;4644;48.858;9.184;2023-02-10T15:16:06;22.33;;;14.07;;